首页
METAR-TAF:

METAR-TAF

机场 :

凱恩斯國際機場

凱恩斯, 澳大利亚

纬度: 16-53S, 经度: 145-45E, 海拔: 3米

当前天气观测

该预报发布于47分钟前的00:00 UTC
风速8节,风向
温度 22°C
湿度 50%
气压 1019 hPa
能见度10公里或以上

METAR: YBCS 270000Z AUTO 18008KT 9999 // NCD 22/11 Q1019 NOSIG

时间: 10:47 (00:47 UTC)

预报

该预报发布于1小时和35分钟前的23:12 UTC
预报有效从27日的 00点(UTC)到 28日的 00点(UTC)
风速10节,风向东转东南
能见度10公里或以上
少量云层高于4500英尺
从 27日的 1100点(UTC)
风速6节,风向
能见度10公里或以上
少量云层高于3000英尺

TAF: YBCS 262312Z 2700/2800 12010KT 9999 FEW045 FM271100 19006KT 9999 FEW030

超过4000个机场的气象观测和天气预报(METAR&TAF报告)。

可查询的气象台以黄色和红色小点在地图上表示。

将鼠标移到小点上方,可查看气象台名称。

然后点击查看天气观测和预报。

如需切换地图:点击带黑十字的绿色按钮放大地图;点击带横线的绿色按钮缩小地图;或者点击绿色箭头查看邻近地区的地图。


METAR-TAF: